Time;durP1;ratioP1;P1;durP2;ratioP2;P2;SDS_P1;SDS_P2;PMS_P1;PMS_P2;Temp;Humidity;BMP_temperature;BMP_pressure;BME280_temperature;BME280_humidity;BME280_pressure;Samples;Min_cycle;Max_cycle;Signal;HPM_P1;HPM_P2
2021/12/02 00:00:27;;;;;;;4.03;1.83;;;;;;;3.05;81.28;96434.38;4206497;27;20322;-71
2021/12/02 00:02:27;;;;;;;5.15;1.83;;;;;;;2.98;80.98;96435.13;4207311;27;20433;-71
2021/12/02 00:04:30;;;;;;;3.90;1.80;;;;;;;2.90;81.75;96440.91;4208162;27;20063;-71
2021/12/02 00:06:30;;;;;;;;;;;;;;;2.89;82.03;96448.28;4210804;27;20038;-71
2021/12/02 00:08:30;;;;;;;2.90;1.83;;;;;;;2.92;81.47;96452.25;4207264;27;19963;-71
2021/12/02 00:10:31;;;;;;;2.22;1.65;;;;;;;2.87;81.63;96436.97;4204852;27;20419;-71
2021/12/02 00:12:32;;;;;;;4.90;1.70;;;;;;;2.81;81.81;96439.28;4206318;27;20107;-71
2021/12/02 00:14:41;;;;;;;4.10;2.00;;;;;;;2.78;81.96;96436.50;4215217;27;20070;-71
2021/12/02 00:17:03;;;;;;;2.95;1.67;;;;;;;2.78;82.29;96440.00;4209148;27;20241;-71
2021/12/02 00:21:26;;;;;;;5.30;2.55;;;;;;;2.71;82.70;96439.94;4209546;27;20093;-71
2021/12/02 00:23:47;;;;;;;6.47;1.70;;;;;;;2.68;82.49;96443.44;4208890;27;20109;-71
2021/12/02 00:25:49;;;;;;;5.43;1.75;;;;;;;2.65;82.42;96437.94;4209981;27;20116;-71
2021/12/02 00:27:49;;;;;;;3.63;1.70;;;;;;;2.59;83.01;96436.72;4206393;27;20096;-71
2021/12/02 00:29:54;;;;;;;3.30;1.70;;;;;;;2.56;83.27;96448.38;4205901;27;20285;-71
2021/12/02 00:31:54;;;;;;;4.13;1.50;;;;;;;2.58;83.35;96454.25;4207265;27;20268;-71
2021/12/02 00:33:58;;;;;;;6.18;2.08;;;;;;;2.65;82.89;96444.19;4206836;27;20531;-71
2021/12/02 00:35:59;;;;;;;3.13;2.05;;;;;;;2.61;83.76;96442.59;4207792;27;20044;-71
2021/12/02 00:38:01;;;;;;;2.78;1.67;;;;;;;2.66;83.08;96434.84;4206113;27;20384;-72
2021/12/02 00:40:01;;;;;;;6.60;2.28;;;;;;;2.66;83.58;96445.75;4206255;27;20047;-71
2021/12/02 00:42:02;;;;;;;4.82;1.58;;;;;;;2.70;83.58;96445.78;4208977;27;20031;-71
2021/12/02 00:44:03;;;;;;;6.20;2.45;;;;;;;2.67;83.84;96455.53;4211230;27;20115;-71
2021/12/02 00:46:08;;;;;;;5.80;2.00;;;;;;;2.72;83.95;96449.69;4208717;27;20542;-71
2021/12/02 00:48:10;;;;;;;5.47;1.90;;;;;;;2.68;84.99;96453.56;4208453;27;20024;-71
2021/12/02 00:50:10;;;;;;;9.93;2.30;;;;;;;2.71;84.46;96439.16;4208277;27;20055;-71
2021/12/02 00:52:11;;;;;;;4.93;1.88;;;;;;;2.69;84.62;96430.56;4205351;27;20781;-71
2021/12/02 00:54:12;;;;;;;2.03;1.75;;;;;;;2.67;85.21;96435.63;4207486;27;20363;-71
2021/12/02 00:56:16;;;;;;;5.00;1.85;;;;;;;2.64;85.28;96439.88;4204857;27;20032;-71
2021/12/02 00:58:20;;;;;;;4.45;2.00;;;;;;;2.62;85.29;96430.50;4208269;27;20067;-71
2021/12/02 01:00:20;;;;;;;3.72;1.85;;;;;;;2.66;85.73;96450.44;4208953;27;20103;-71
2021/12/02 01:02:21;;;;;;;6.35;2.10;;;;;;;2.60;85.80;96444.53;4205967;27;20044;-71
2021/12/02 01:04:23;;;;;;;4.35;2.00;;;;;;;2.59;86.06;96459.34;4207690;27;20113;-71
2021/12/02 01:06:25;;;;;;;3.80;2.58;;;;;;;2.61;85.66;96450.78;4210814;27;20049;-71
2021/12/02 01:08:26;;;;;;;3.72;2.10;;;;;;;2.61;85.60;96459.75;4207753;27;20044;-72
2021/12/02 01:10:27;;;;;;;5.45;2.55;;;;;;;2.56;85.10;96460.06;4209533;27;20500;-71
2021/12/02 01:12:27;;;;;;;3.10;2.00;;;;;;;2.52;85.82;96467.44;4210645;27;20646;-71
2021/12/02 01:14:28;;;;;;;2.97;1.83;;;;;;;2.61;84.17;96465.22;4207369;27;20468;-71
2021/12/02 01:16:28;;;;;;;3.60;2.45;;;;;;;2.64;83.37;96460.94;4206057;27;20040;-71
2021/12/02 01:18:29;;;;;;;4.78;2.30;;;;;;;2.64;83.21;96461.72;4208851;27;20039;-71
2021/12/02 01:20:31;;;;;;;3.55;1.80;;;;;;;2.65;83.32;96478.88;4208745;27;20075;-71
2021/12/02 01:22:35;;;;;;;3.55;2.10;;;;;;;2.66;83.45;96494.13;4206361;27;20757;-71
2021/12/02 01:24:39;;;;;;;4.82;2.20;;;;;;;2.63;84.01;96494.84;4204126;27;20109;-71
2021/12/02 01:26:39;;;;;;;5.32;2.10;;;;;;;2.65;83.17;96489.81;4211176;27;20525;-71
2021/12/02 01:28:40;;;;;;;3.53;1.92;;;;;;;2.62;83.74;96490.56;4210927;27;20288;-71
2021/12/02 01:30:41;;;;;;;2.35;1.90;;;;;;;2.60;83.67;96507.31;4207024;27;20127;-71
2021/12/02 01:32:44;;;;;;;4.88;1.90;;;;;;;2.61;83.20;96492.50;4206464;28;20047;-71
2021/12/02 01:34:47;;;;;;;4.75;2.20;;;;;;;2.58;83.64;96493.25;4207313;27;20093;-71
2021/12/02 01:36:50;;;;;;;3.90;2.08;;;;;;;2.59;83.17;96502.25;4205453;28;20171;-71
2021/12/02 01:38:52;;;;;;;2.25;1.65;;;;;;;2.54;82.91;96497.88;4207655;27;20369;-71
2021/12/02 01:40:54;;;;;;;5.82;1.90;;;;;;;2.57;82.24;96504.56;4206072;27;20285;-71
2021/12/02 01:42:57;;;;;;;2.08;1.52;;;;;;;2.64;81.36;96510.06;4206174;27;20040;-71
2021/12/02 01:44:58;;;;;;;4.03;1.55;;;;;;;2.64;81.25;96504.63;4204745;28;20127;-71
2021/12/02 01:47:00;;;;;;;6.07;1.95;;;;;;;2.61;81.05;96517.09;4205540;28;20036;-71
2021/12/02 01:49:06;;;;;;;4.93;1.98;;;;;;;2.59;81.63;96513.94;4205257;27;20044;-71
2021/12/02 01:51:10;;;;;;;5.00;1.90;;;;;;;2.46;82.26;96516.13;4206211;28;20368;-71
2021/12/02 01:53:15;;;;;;;5.20;1.98;;;;;;;2.43;82.29;96514.16;4206779;28;20063;-71
2021/12/02 01:55:16;;;;;;;3.03;2.10;;;;;;;2.37;82.63;96512.91;4205628;28;20051;-71
2021/12/02 01:57:29;;;;;;;4.93;1.70;;;;;;;2.47;81.61;96523.16;4207167;28;20055;-71
2021/12/02 01:59:34;;;;;;;4.40;2.00;;;;;;;2.50;81.51;96527.09;4204821;28;20058;-71
2021/12/02 02:01:37;;;;;;;6.07;2.13;;;;;;;2.41;82.06;96527.41;4206194;27;20276;-71
2021/12/02 02:03:37;;;;;;;5.15;2.08;;;;;;;2.34;82.46;96521.06;4210458;27;20087;-71
2021/12/02 02:05:38;;;;;;;3.05;1.67;;;;;;;2.38;81.98;96528.13;4210876;27;20035;-71
2021/12/02 02:07:59;;;;;;;5.03;1.70;;;;;;;2.44;81.49;96525.84;4217531;27;20051;-71
2021/12/02 02:09:59;;;;;;;5.10;1.98;;;;;;;2.36;82.29;96532.38;4206383;27;20064;-71
2021/12/02 02:12:03;;;;;;;3.65;1.77;;;;;;;2.34;82.02;96537.44;4215640;27;20090;-71
2021/12/02 02:14:07;;;;;;;7.22;1.90;;;;;;;2.38;81.07;96532.78;4209159;27;20062;-71
2021/12/02 02:16:08;;;;;;;3.05;1.65;;;;;;;2.32;81.62;96542.47;4206722;27;20035;-71
2021/12/02 02:20:14;;;;;;;3.33;1.85;;;;;;;2.27;82.10;96559.97;4212605;27;20387;-71
2021/12/02 02:22:19;;;;;;;3.17;2.30;;;;;;;2.26;82.00;96558.38;4209322;27;20426;-71
2021/12/02 02:24:20;;;;;;;3.28;1.67;;;;;;;2.25;82.55;96562.28;4210202;27;20120;-71
2021/12/02 02:26:24;;;;;;;2.15;1.40;;;;;;;2.23;82.44;96564.56;4209839;27;20071;-71
2021/12/02 02:28:26;;;;;;;5.85;1.88;;;;;;;2.26;81.93;96563.84;4208752;27;20086;-71
2021/12/02 02:30:26;;;;;;;2.30;1.70;;;;;;;2.23;82.16;96568.13;4210468;27;20356;-71
2021/12/02 02:32:27;;;;;;;2.33;1.40;;;;;;;2.16;82.91;96578.94;4217267;27;20062;-71
2021/12/02 02:34:28;;;;;;;5.07;1.60;;;;;;;2.16;82.33;96581.66;4210720;27;20036;-71
2021/12/02 02:36:32;;;;;;;5.47;2.22;;;;;;;2.12;82.73;96580.81;4208153;27;20457;-71
2021/12/02 02:38:33;;;;;;;3.80;1.50;;;;;;;2.11;83.15;96583.91;4210947;27;20483;-71
2021/12/02 02:40:38;;;;;;;8.07;2.30;;;;;;;2.05;83.29;96583.44;4214487;27;20040;-71
2021/12/02 02:42:39;;;;;;;2.58;1.65;;;;;;;2.08;83.16;96588.16;4208142;27;20038;-71
2021/12/02 02:44:39;;;;;;;4.05;2.03;;;;;;;2.06;83.81;96592.41;4209806;27;20047;-71
2021/12/02 02:46:41;;;;;;;2.85;1.88;;;;;;;1.97;84.43;96592.66;4210289;27;20166;-71
2021/12/02 02:48:41;;;;;;;8.98;2.10;;;;;;;2.01;84.28;96598.19;4210153;27;20035;-71
2021/12/02 02:50:42;;;;;;;4.80;2.08;;;;;;;1.99;84.29;96593.09;4207324;27;20044;-71
2021/12/02 02:52:43;;;;;;;6.85;2.58;;;;;;;2.09;84.13;96587.00;4209702;27;20381;-72
2021/12/02 02:54:43;;;;;;;3.15;2.55;;;;;;;2.01;84.38;96577.16;4210395;27;20036;-71
2021/12/02 02:57:04;;;;;;;5.20;2.05;;;;;;;2.04;84.31;96579.13;4207116;27;20062;-71
2021/12/02 03:05:52;;;;;;;5.82;1.83;;;;;;;2.11;83.63;96606.50;4213529;27;20046;-71
2021/12/02 03:08:10;;;;;;;4.90;2.03;;;;;;;2.17;83.00;96605.06;4207010;28;20327;-71
2021/12/02 03:12:39;;;;;;;8.25;2.60;;;;;;;2.27;82.69;96606.34;4206951;28;20028;-71
2021/12/02 03:16:44;;;;;;;2.15;1.55;;;;;;;2.25;83.03;96597.75;4206191;28;20044;-71
2021/12/02 03:18:45;;;;;;;8.25;2.17;;;;;;;2.31;83.05;96590.00;4205412;28;20046;-71
2021/12/02 03:20:45;;;;;;;3.13;1.65;;;;;;;2.30;83.74;96594.69;4207743;28;20446;-71
2021/12/02 03:22:45;;;;;;;2.65;1.58;;;;;;;2.32;83.40;96584.22;4208149;28;20392;-71
2021/12/02 03:24:46;;;;;;;3.38;1.70;;;;;;;2.28;84.38;96588.03;4205965;28;20044;-71
2021/12/02 03:26:47;;;;;;;6.72;2.20;;;;;;;2.17;84.45;96583.22;4206618;28;20071;-71
2021/12/02 03:28:48;;;;;;;2.67;1.85;;;;;;;2.14;85.24;96583.94;4207265;28;20063;-71
2021/12/02 03:30:49;;;;;;;6.15;2.10;;;;;;;2.13;85.18;96587.03;4204959;27;20502;-71
2021/12/02 03:32:49;;;;;;;4.65;2.10;;;;;;;2.08;85.20;96585.44;4208455;28;20126;-71
2021/12/02 03:34:50;;;;;;;2.70;1.52;;;;;;;2.02;85.93;96583.38;4209142;27;20078;-71
2021/12/02 03:36:51;;;;;;;5.85;2.13;;;;;;;1.93;85.80;96583.66;4213538;27;20191;-71
2021/12/02 03:38:52;;;;;;;7.20;1.98;;;;;;;1.93;85.36;96597.28;4205176;28;20069;-71
2021/12/02 03:40:52;;;;;;;2.88;1.83;;;;;;;1.89;85.55;96594.50;4208430;27;20340;-71
2021/12/02 03:42:54;;;;;;;3.10;1.75;;;;;;;1.89;84.72;96601.88;4209312;28;20150;-71
2021/12/02 03:44:54;;;;;;;3.90;1.98;;;;;;;1.93;84.87;96609.00;4205355;28;20071;-71
2021/12/02 03:46:54;;;;;;;4.35;1.90;;;;;;;1.96;84.92;96621.88;4209056;28;20081;-71
2021/12/02 03:48:56;;;;;;;4.97;1.88;;;;;;;1.99;86.63;96612.19;4205709;28;20079;-71
2021/12/02 03:50:57;;;;;;;4.20;1.95;;;;;;;1.97;88.03;96607.09;4207595;28;20070;-71
2021/12/02 03:52:58;;;;;;;4.38;2.13;;;;;;;1.96;88.63;96612.91;4205375;28;20044;-71
2021/12/02 03:54:58;;;;;;;2.72;2.00;;;;;;;1.87;89.06;96613.16;4207809;28;20070;-71
2021/12/02 03:56:59;;;;;;;5.55;2.15;;;;;;;1.98;88.14;96605.94;4168438;27;1073821;-71
2021/12/02 03:59:00;;;;;;;10.20;2.90;;;;;;;1.95;89.18;96605.88;4204222;27;20359;-71
2021/12/02 04:01:00;;;;;;;7.07;2.30;;;;;;;1.85;90.71;96601.06;4208973;27;20039;-71
2021/12/02 04:03:01;;;;;;;4.68;2.30;;;;;;;1.82;90.63;96615.41;4209878;27;20059;-71
2021/12/02 04:05:01;;;;;;;10.27;2.72;;;;;;;1.72;91.12;96608.66;4208941;27;20043;-71
2021/12/02 04:07:02;;;;;;;3.55;2.13;;;;;;;1.65;92.21;96609.31;4206727;27;20151;-71
2021/12/02 04:09:10;;;;;;;4.05;2.00;;;;;;;1.57;92.50;96609.56;4207504;27;20044;-71
2021/12/02 04:13:18;;;;;;;3.95;2.17;;;;;;;1.40;92.95;96614.34;4209777;27;20048;-71
2021/12/02 04:15:25;;;;;;;5.55;2.58;;;;;;;1.42;91.46;96607.78;4206572;27;20514;-71
2021/12/02 04:19:57;;;;;;;4.68;1.90;;;;;;;1.49;90.26;96610.59;4205509;27;20054;-72
2021/12/02 04:21:58;;;;;;;11.93;2.65;;;;;;;1.52;88.98;96609.88;4211626;28;20298;-71
2021/12/02 04:23:59;;;;;;;5.15;1.85;;;;;;;1.50;89.61;96604.81;4208602;27;20044;-71
2021/12/02 04:25:59;;;;;;;3.05;1.80;;;;;;;1.46;89.73;96609.41;4211221;27;20047;-71
2021/12/02 04:28:00;;;;;;;4.35;2.13;;;;;;;1.45;89.16;96615.22;4205563;27;20044;-72
2021/12/02 04:30:06;;;;;;;4.00;1.52;;;;;;;1.52;88.58;96615.34;4208165;27;20040;-72
2021/12/02 04:32:06;;;;;;;3.60;1.80;;;;;;;1.56;87.42;96611.50;4209937;27;20023;-72
2021/12/02 04:34:07;;;;;;;5.18;1.80;;;;;;;1.55;87.86;96623.56;4208590;27;20031;-71
2021/12/02 04:36:07;;;;;;;4.45;2.15;;;;;;;1.52;88.22;96616.13;4207772;27;20322;-71
2021/12/02 04:38:08;;;;;;;3.63;1.85;;;;;;;1.54;87.98;96621.22;4210630;27;20035;-71
2021/12/02 04:40:10;;;;;;;2.88;1.67;;;;;;;1.52;87.94;96618.84;4207113;27;20043;-71
2021/12/02 04:42:10;;;;;;;3.60;2.33;;;;;;;1.57;88.04;96623.19;4210031;28;20019;-71
2021/12/02 04:44:11;;;;;;;5.55;2.13;;;;;;;1.57;88.39;96628.66;4213517;27;20027;-71
2021/12/02 04:46:12;;;;;;;17.42;8.10;;;;;;;1.50;88.53;96634.78;4213189;27;20035;-71
2021/12/02 04:48:12;;;;;;;43.55;16.95;;;;;;;1.47;89.02;96634.72;4213892;27;20546;-71
2021/12/02 04:50:12;;;;;;;26.20;12.10;;;;;;;1.44;89.46;96632.72;4208457;27;20050;-71
2021/12/02 04:52:13;;;;;;;11.35;6.15;;;;;;;1.46;89.14;96639.38;4209917;27;20308;-71
2021/12/02 04:54:14;;;;;;;13.73;6.45;;;;;;;1.39;89.74;96637.31;4214448;27;20028;-71
2021/12/02 04:56:15;;;;;;;5.53;2.67;;;;;;;1.33;90.29;96633.31;4211555;27;20467;-71
2021/12/02 04:58:15;;;;;;;4.25;2.05;;;;;;;1.31;91.25;96638.31;4212891;27;20126;-71
2021/12/02 05:00:16;;;;;;;3.92;1.70;;;;;;;1.31;90.34;96640.28;4211723;27;20062;-71
2021/12/02 05:02:17;;;;;;;2.97;1.60;;;;;;;1.29;90.77;96637.13;4210441;27;20051;-71
2021/12/02 05:04:17;;;;;;;2.40;1.73;;;;;;;1.30;90.96;96636.75;4212412;27;20040;-71
2021/12/02 05:06:18;;;;;;;4.38;1.63;;;;;;;1.37;90.03;96633.38;4214159;27;20054;-71
2021/12/02 05:08:18;;;;;;;2.28;1.50;;;;;;;1.38;89.70;96632.22;4212833;27;20062;-71
2021/12/02 05:10:19;;;;;;;3.28;2.38;;;;;;;1.44;89.02;96638.16;4209488;27;20125;-71
2021/12/02 05:12:21;;;;;;;3.22;1.88;;;;;;;1.45;88.86;96632.34;4212498;27;20172;-71
2021/12/02 05:14:21;;;;;;;2.33;1.90;;;;;;;1.55;88.79;96636.41;4210901;28;20236;-71
2021/12/02 05:16:21;;;;;;;4.15;1.90;;;;;;;1.53;88.14;96639.50;4209026;27;20388;-72
2021/12/02 05:18:22;;;;;;;3.65;1.83;;;;;;;1.49;89.17;96643.31;4210656;27;20420;-71
2021/12/02 05:20:22;;;;;;;2.13;1.40;;;;;;;1.45;89.07;96635.06;4211321;27;20484;-71
2021/12/02 05:22:22;;;;;;;4.15;1.90;;;;;;;1.39;90.01;96641.97;4214167;27;20100;-71
2021/12/02 05:24:23;;;;;;;4.97;2.30;;;;;;;1.40;89.82;96647.06;4210362;27;20140;-71
2021/12/02 05:26:25;;;;;;;6.15;3.80;;;;;;;1.44;89.54;96643.63;4210246;27;20076;-71
2021/12/02 05:28:25;;;;;;;6.53;2.55;;;;;;;1.43;89.84;96645.56;4211371;27;20052;-71
2021/12/02 05:30:26;;;;;;;2.90;2.05;;;;;;;1.55;88.97;96639.13;4207525;27;20241;-71
2021/12/02 05:32:30;;;;;;;5.57;2.80;;;;;;;1.45;89.05;96631.56;4211789;27;20372;-71
2021/12/02 05:34:31;;;;;;;3.85;2.58;;;;;;;1.41;89.23;96634.25;4212142;27;20109;-71
2021/12/02 05:36:31;;;;;;;5.07;2.83;;;;;;;1.44;88.42;96643.63;4203942;28;20047;-71
2021/12/02 05:38:31;;;;;;;5.95;3.40;;;;;;;1.43;88.18;96639.31;4211476;27;20567;-71
2021/12/02 05:40:32;;;;;;;6.68;2.70;;;;;;;1.32;89.29;96637.19;4208261;27;20040;-71
2021/12/02 05:42:32;;;;;;;3.85;2.60;;;;;;;1.33;89.30;96641.50;4206562;27;20062;-71
2021/12/02 05:44:33;;;;;;;5.75;2.60;;;;;;;1.29;89.14;96639.84;4207644;27;20036;-71
2021/12/02 05:46:34;;;;;;;6.63;3.35;;;;;;;1.27;88.80;96636.69;4207825;28;20127;-71
2021/12/02 05:48:34;;;;;;;5.78;3.00;;;;;;;1.25;89.43;96639.78;4206752;28;20367;-71
2021/12/02 05:50:34;;;;;;;7.00;4.22;;;;;;;1.24;89.49;96643.69;4205009;28;20512;-71
2021/12/02 05:52:35;;;;;;;8.73;3.72;;;;;;;1.23;88.96;96642.06;4205603;28;20033;-71
2021/12/02 05:54:35;;;;;;;5.75;3.10;;;;;;;1.20;89.59;96642.81;4205583;28;20460;-71
2021/12/02 05:56:36;;;;;;;4.13;2.65;;;;;;;1.21;89.21;96651.75;4204912;27;20044;-71
2021/12/02 05:58:36;;;;;;;5.63;4.18;;;;;;;1.23;89.31;96647.53;4208173;28;20387;-71
2021/12/02 06:00:37;;;;;;;6.80;3.60;;;;;;;1.18;89.37;96641.59;4211261;28;20055;-71
2021/12/02 06:02:38;;;;;;;5.88;2.70;;;;;;;1.18;90.03;96647.06;4211147;27;20480;-71
2021/12/02 06:04:39;;;;;;;4.30;2.38;;;;;;;1.13;90.35;96645.41;4211301;28;20062;-71
2021/12/02 06:06:41;;;;;;;7.38;2.58;;;;;;;1.06;91.14;96640.59;4210572;27;20899;-72
2021/12/02 06:08:42;;;;;;;8.00;2.65;;;;;;;1.03;91.00;96648.72;4207358;28;20109;-72
2021/12/02 06:10:43;;;;;;;5.60;2.90;;;;;;;1.04;90.42;96647.56;4203766;28;20044;-72
2021/12/02 06:12:44;;;;;;;4.32;2.72;;;;;;;0.99;90.63;96642.41;4204895;28;20040;-72
2021/12/02 06:14:44;;;;;;;3.15;2.78;;;;;;;0.97;90.99;96641.97;4205615;28;20131;-71
2021/12/02 06:16:44;;;;;;;9.00;2.20;;;;;;;1.01;89.96;96656.47;4205145;28;20524;-71
2021/12/02 06:18:45;;;;;;;7.43;2.58;;;;;;;1.00;89.92;96654.88;4205959;28;20379;-71
2021/12/02 06:20:51;;;;;;;6.15;2.97;;;;;;;0.99;89.50;96666.91;4206656;28;20040;-71
2021/12/02 06:22:51;;;;;;;11.82;5.70;;;;;;;1.03;88.63;96660.38;4207516;28;20500;-71
2021/12/02 06:25:05;;;;;;;7.72;3.90;;;;;;;1.01;88.70;96659.97;4207699;28;20050;-71
2021/12/02 06:27:05;;;;;;;18.83;8.18;;;;;;;1.08;88.40;96657.38;4212290;28;20391;-71
2021/12/02 06:29:06;;;;;;;11.48;4.40;;;;;;;1.13;87.46;96661.75;4205458;28;20040;-71
2021/12/02 06:31:06;;;;;;;13.20;5.95;;;;;;;1.15;87.24;96664.88;4212605;27;20054;-71
2021/12/02 06:33:07;;;;;;;9.77;4.65;;;;;;;1.13;88.68;96662.53;4203272;28;20040;-71
2021/12/02 06:35:08;;;;;;;20.95;8.55;;;;;;;1.13;88.59;96667.97;4206555;28;20032;-71
2021/12/02 06:37:08;;;;;;;16.55;7.15;;;;;;;1.14;88.14;96668.75;4206601;28;20330;-71
2021/12/02 06:39:09;;;;;;;38.13;16.38;;;;;;;1.19;86.75;96667.69;4203633;28;20055;-71
2021/12/02 06:41:09;;;;;;;22.60;11.98;;;;;;;1.21;86.61;96677.06;4207360;27;20046;-71
2021/12/02 06:43:09;;;;;;;28.70;12.27;;;;;;;1.15;86.92;96675.00;4206147;28;20075;-71
2021/12/02 06:45:11;;;;;;;18.65;9.80;;;;;;;1.07;88.50;96672.13;4206118;28;20072;-71
2021/12/02 06:47:12;;;;;;;17.45;9.98;;;;;;;1.04;88.15;96677.50;4205166;28;20044;-71
2021/12/02 06:49:12;;;;;;;12.73;7.32;;;;;;;0.99;89.04;96672.34;4206336;28;20399;-71
2021/12/02 06:51:13;;;;;;;14.25;6.75;;;;;;;0.97;89.42;96680.09;4208417;27;20040;-71
2021/12/02 06:53:16;;;;;;;10.60;5.97;;;;;;;0.94;89.18;96691.72;4209525;27;20462;-71
2021/12/02 06:55:18;;;;;;;12.35;5.05;;;;;;;0.93;89.31;96693.66;4214875;27;20044;-71
2021/12/02 06:57:18;;;;;;;12.23;4.28;;;;;;;0.90;89.34;96688.91;4208308;27;20047;-71
2021/12/02 06:59:19;;;;;;;9.05;3.75;;;;;;;0.89;89.96;96700.16;4208493;27;20463;-71
2021/12/02 07:01:20;;;;;;;7.65;3.25;;;;;;;0.89;90.35;96694.72;4207906;27;20064;-71
2021/12/02 07:03:20;;;;;;;7.63;2.70;;;;;;;0.89;90.64;96700.16;4209225;27;20067;-71
2021/12/02 07:05:21;;;;;;;4.50;2.30;;;;;;;0.87;90.26;96695.06;4208369;27;20121;-71
2021/12/02 07:07:21;;;;;;;9.73;3.75;;;;;;;0.85;90.98;96700.09;4209346;27;20036;-71
2021/12/02 07:09:22;;;;;;;4.68;2.30;;;;;;;0.84;91.01;96712.13;4212020;27;20046;-71
2021/12/02 07:11:22;;;;;;;6.38;2.10;;;;;;;0.88;91.44;96721.16;4208059;27;20097;-71
2021/12/02 07:13:22;;;;;;;8.63;2.80;;;;;;;0.88;91.60;96723.09;4207537;27;20039;-71
2021/12/02 07:15:39;;;;;;;4.95;2.00;;;;;;;0.92;90.74;96715.81;4207506;27;20032;-71
2021/12/02 07:17:39;;;;;;;4.90;2.10;;;;;;;0.94;91.24;96716.22;4213941;27;20777;-71
2021/12/02 07:19:40;;;;;;;4.18;2.78;;;;;;;0.95;91.23;96724.03;4206882;27;20071;-71
2021/12/02 07:21:41;;;;;;;3.13;2.00;;;;;;;0.97;91.64;96726.38;4209451;27;20094;-71
2021/12/02 07:23:42;;;;;;;3.75;2.10;;;;;;;0.96;92.17;96730.25;4206906;27;20054;-71
2021/12/02 07:25:42;;;;;;;5.78;2.45;;;;;;;0.98;92.19;96727.97;4209648;27;20048;-71
2021/12/02 07:27:43;;;;;;;5.55;3.00;;;;;;;1.00;92.52;96729.19;4206535;27;20067;-71
2021/12/02 07:29:43;;;;;;;8.40;3.05;;;;;;;1.03;92.91;96719.53;4207235;27;20040;-71
2021/12/02 07:31:43;;;;;;;11.25;4.10;;;;;;;1.07;92.98;96725.81;4208252;27;20036;-71
2021/12/02 07:33:48;;;;;;;13.35;5.32;;;;;;;1.10;93.46;96719.66;4206958;27;20039;-71
2021/12/02 07:35:48;;;;;;;16.48;4.35;;;;;;;1.13;93.43;96733.34;4208898;27;20044;-71
2021/12/02 07:37:52;;;;;;;10.30;4.60;;;;;;;1.15;93.64;96729.47;4211372;27;20446;-71
2021/12/02 07:39:53;;;;;;;10.77;4.20;;;;;;;1.13;93.90;96733.34;4209504;27;20372;-71
2021/12/02 07:41:55;;;;;;;11.32;3.85;;;;;;;1.17;94.11;96727.97;4206646;27;20349;-71
2021/12/02 07:43:55;;;;;;;7.65;3.58;;;;;;;1.14;94.35;96728.69;4207210;27;20040;-71
2021/12/02 07:45:57;;;;;;;10.13;4.05;;;;;;;1.17;94.14;96729.94;4208984;27;20071;-71
2021/12/02 07:47:59;;;;;;;9.63;4.45;;;;;;;1.22;94.12;96732.34;4207059;27;20054;-71
2021/12/02 07:50:00;;;;;;;9.65;4.55;;;;;;;1.21;93.88;96728.03;4207521;27;20038;-71
2021/12/02 07:52:01;;;;;;;11.00;4.90;;;;;;;1.23;94.28;96734.69;4206678;27;20044;-71
2021/12/02 07:54:02;;;;;;;12.90;5.95;;;;;;;1.25;94.51;96742.53;4209157;27;20040;-71
2021/12/02 07:56:04;;;;;;;17.35;7.03;;;;;;;1.25;94.59;96745.25;4206135;27;20036;-71
2021/12/02 07:58:10;;;;;;;13.88;7.47;;;;;;;1.25;94.75;96750.72;4207616;27;20085;-71
2021/12/02 08:00:12;;;;;;;15.68;7.25;;;;;;;1.25;95.04;96759.66;4213067;27;20034;-71
2021/12/02 08:02:15;;;;;;;16.77;7.65;;;;;;;1.23;95.74;96764.66;4206618;27;20036;-71
2021/12/02 08:04:15;;;;;;;15.98;8.60;;;;;;;1.25;96.39;96769.78;4205901;27;20024;-71
2021/12/02 08:06:16;;;;;;;14.30;7.85;;;;;;;1.23;96.46;96769.31;4215469;27;20430;-71
2021/12/02 08:08:16;;;;;;;12.93;6.20;;;;;;;1.28;96.98;96771.78;4207678;27;20273;-71
2021/12/02 08:10:17;;;;;;;12.73;4.80;;;;;;;1.28;96.85;96772.56;4204829;27;20050;-71
2021/12/02 08:12:17;;;;;;;17.65;5.65;;;;;;;1.29;97.20;96776.06;4212072;27;20533;-72
2021/12/02 08:14:17;;;;;;;6.85;4.22;;;;;;;1.31;97.14;96784.69;4208271;27;20024;-72
2021/12/02 08:16:21;;;;;;;8.70;4.00;;;;;;;1.29;97.82;96773.34;4207018;27;20039;-71
2021/12/02 08:18:21;;;;;;;7.80;3.35;;;;;;;1.29;97.64;96776.06;4204865;28;20051;-72
2021/12/02 08:20:23;;;;;;;5.28;2.97;;;;;;;1.30;97.32;96772.19;4208270;27;20356;-72
2021/12/02 08:22:24;;;;;;;5.68;2.92;;;;;;;1.31;97.78;96781.94;4207646;27;20042;-72
2021/12/02 08:24:25;;;;;;;7.30;3.00;;;;;;;1.32;97.66;96778.06;4205061;27;20094;-72
2021/12/02 08:26:26;;;;;;;7.47;3.30;;;;;;;1.30;97.78;96777.66;4209366;27;20472;-72
2021/12/02 08:28:28;;;;;;;5.22;3.08;;;;;;;1.33;97.92;96790.56;4209763;27;20068;-72
2021/12/02 08:30:33;;;;;;;9.35;3.42;;;;;;;1.30;98.15;96786.63;4207723;27;20032;-72
2021/12/02 08:32:37;;;;;;;9.90;3.20;;;;;;;1.35;98.39;96788.28;4206870;27;20029;-72
2021/12/02 08:34:38;;;;;;;7.60;2.72;;;;;;;1.30;98.71;96792.06;4207357;27;20059;-71
2021/12/02 08:36:45;;;;;;;6.60;2.83;;;;;;;1.31;98.78;96798.28;4212003;27;20028;-71
2021/12/02 08:38:47;;;;;;;4.28;2.53;;;;;;;1.31;98.36;96793.63;4206352;27;20055;-71
2021/12/02 08:40:48;;;;;;;5.50;2.78;;;;;;;1.35;98.62;96799.19;4211285;27;20068;-71
2021/12/02 08:42:49;;;;;;;3.90;2.33;;;;;;;1.37;98.03;96803.09;4209531;27;20036;-71
2021/12/02 08:44:50;;;;;;;10.82;6.15;;;;;;;1.37;98.64;96808.56;4207077;27;20027;-71
2021/12/02 08:46:52;;;;;;;7.68;4.43;;;;;;;1.38;98.39;96803.91;4205411;28;20137;-71
2021/12/02 08:48:53;;;;;;;5.13;3.33;;;;;;;1.41;98.35;96803.19;4206361;27;20467;-71
2021/12/02 08:50:54;;;;;;;7.70;2.87;;;;;;;1.42;98.31;96815.66;4209503;27;20032;-72
2021/12/02 08:52:57;;;;;;;5.65;2.70;;;;;;;1.40;98.40;96813.28;4209038;27;20483;-72
2021/12/02 08:54:58;;;;;;;5.35;3.40;;;;;;;1.38;98.60;96812.06;4213500;27;20349;-71
2021/12/02 08:56:58;;;;;;;5.03;3.38;;;;;;;1.37;99.31;96810.50;4209837;27;20048;-71
2021/12/02 08:58:59;;;;;;;9.68;4.10;;;;;;;1.39;99.24;96819.09;4204876;27;20040;-71
2021/12/02 09:01:00;;;;;;;6.97;3.67;;;;;;;1.40;99.11;96810.56;4206535;27;20281;-72
2021/12/02 09:03:02;;;;;;;11.95;4.00;;;;;;;1.42;98.51;96823.84;4208787;27;20051;-72
2021/12/02 09:05:04;;;;;;;6.93;3.47;;;;;;;1.46;98.42;96829.34;4205524;27;20102;-72
2021/12/02 09:07:05;;;;;;;6.32;3.38;;;;;;;1.44;98.53;96821.53;4206875;27;20404;-72
2021/12/02 09:09:06;;;;;;;6.35;2.60;;;;;;;1.47;98.50;96828.22;4206822;27;20220;-72
2021/12/02 09:11:06;;;;;;;6.32;2.80;;;;;;;1.50;98.27;96832.97;4208159;27;20206;-71
2021/12/02 09:13:10;;;;;;;6.03;3.03;;;;;;;1.45;98.71;96825.06;4204599;28;20039;-71
2021/12/02 09:15:11;;;;;;;7.35;3.83;;;;;;;1.44;99.18;96826.22;4205840;27;20426;-71
2021/12/02 09:17:11;;;;;;;3.90;3.17;;;;;;;1.39;99.30;96827.28;4209453;27;20043;-71
2021/12/02 09:19:12;;;;;;;6.50;3.05;;;;;;;1.37;99.36;96833.09;4207346;28;20180;-71
2021/12/02 09:21:12;;;;;;;4.22;3.05;;;;;;;1.36;99.29;96838.91;4205217;28;20044;-71
2021/12/02 09:23:13;;;;;;;5.20;2.80;;;;;;;1.33;99.41;96836.91;4206993;27;20608;-72
2021/12/02 09:25:16;;;;;;;20.25;6.82;;;;;;;1.34;99.37;96842.00;4209885;27;20568;-72
2021/12/02 09:27:16;;;;;;;;;;;;;;;1.19;100.00;96842.03;4210584;28;20055;-72
2021/12/02 09:29:18;;;;;;;6.53;3.25;;;;;;;1.20;100.00;96846.34;4207170;27;19916;-72
2021/12/02 09:31:21;;;;;;;14.20;7.15;;;;;;;1.18;100.00;96840.47;4206787;27;20054;-72
2021/12/02 09:33:21;;;;;;;5.53;2.33;;;;;;;1.12;100.00;96856.28;4204058;28;20036;-72
2021/12/02 09:35:23;;;;;;;5.00;2.30;;;;;;;0.92;100.00;96866.34;4207503;27;20035;-72
2021/12/02 09:37:23;;;;;;;3.58;2.08;;;;;;;0.90;100.00;96856.94;4209972;27;20113;-71
2021/12/02 09:39:31;;;;;;;3.28;1.30;;;;;;;0.78;100.00;96860.56;4205455;28;20036;-71
2021/12/02 09:41:32;;;;;;;3.90;1.80;;;;;;;0.75;100.00;96858.56;4207412;27;20062;-71
2021/12/02 09:43:32;;;;;;;4.28;2.22;;;;;;;0.70;100.00;96864.25;4209013;27;20048;-72
2021/12/02 09:45:33;;;;;;;3.20;1.90;;;;;;;0.62;100.00;96855.13;4206273;28;20444;-71
2021/12/02 09:47:37;;;;;;;2.03;1.30;;;;;;;0.64;100.00;96863.72;4205317;27;20040;-71
2021/12/02 09:49:38;;;;;;;1.25;1.10;;;;;;;0.60;100.00;96852.00;4204966;28;20036;-72
2021/12/02 09:51:47;;;;;;;1.80;1.10;;;;;;;0.49;100.00;96850.91;4206878;27;20143;-72
2021/12/02 09:57:58;;;;;;;3.03;1.20;;;;;;;0.41;100.00;96847.22;4210821;28;20364;-71
2021/12/02 09:59:58;;;;;;;1.70;1.08;;;;;;;0.43;100.00;96853.13;4208525;27;20040;-71
2021/12/02 10:02:03;;;;;;;1.40;1.10;;;;;;;0.40;100.00;96845.66;4209449;27;20043;-71